sensor_id;sensor_type;location;lat;lon;timestamp;temperature;humidity
72919;SHT30;68407;55.694;26.994;2024-01-30T00:04:33;0.4;87.8
72919;SHT30;68407;55.694;26.994;2024-01-30T00:09:47;0.4;87.7
72919;SHT30;68407;55.694;26.994;2024-01-30T00:14:47;0.4;87.8
72919;SHT30;68407;55.694;26.994;2024-01-30T00:19:11;0.4;87.7
72919;SHT30;68407;55.694;26.994;2024-01-30T00:24:47;0.5;87.7
72919;SHT30;68407;55.694;26.994;2024-01-30T00:29:01;0.5;87.7
72919;SHT30;68407;55.694;26.994;2024-01-30T00:34:17;0.5;87.7
72919;SHT30;68407;55.694;26.994;2024-01-30T00:39:01;0.5;87.7
72919;SHT30;68407;55.694;26.994;2024-01-30T00:44:11;0.6;87.7
72919;SHT30;68407;55.694;26.994;2024-01-30T00:49:47;0.6;87.7
72919;SHT30;68407;55.694;26.994;2024-01-30T00:54:15;0.6;87.7
72919;SHT30;68407;55.694;26.994;2024-01-30T00:59:25;0.7;87.6
72919;SHT30;68407;55.694;26.994;2024-01-30T01:04:47;0.7;87.6
72919;SHT30;68407;55.694;26.994;2024-01-30T01:09:33;0.7;87.6
72919;SHT30;68407;55.694;26.994;2024-01-30T01:14:05;0.7;87.6
72919;SHT30;68407;55.694;26.994;2024-01-30T01:19:37;0.8;87.6
72919;SHT30;68407;55.694;26.994;2024-01-30T01:24:27;0.8;87.5
72919;SHT30;68407;55.694;26.994;2024-01-30T01:29:47;0.8;87.5
72919;SHT30;68407;55.694;26.994;2024-01-30T01:34:17;0.8;87.5
72919;SHT30;68407;55.694;26.994;2024-01-30T01:39:37;0.8;87.6
72919;SHT30;68407;55.694;26.994;2024-01-30T01:44:33;0.8;87.5
72919;SHT30;68407;55.694;26.994;2024-01-30T01:49:47;0.8;87.5
72919;SHT30;68407;55.694;26.994;2024-01-30T01:54:23;0.7;87.6
72919;SHT30;68407;55.694;26.994;2024-01-30T01:59:38;0.7;87.7
72919;SHT30;68407;55.694;26.994;2024-01-30T02:04:23;0.7;87.7
72919;SHT30;68407;55.694;26.994;2024-01-30T02:09:01;0.8;87.7
72919;SHT30;68407;55.694;26.994;2024-01-30T02:14:02;0.7;87.7
72919;SHT30;68407;55.694;26.994;2024-01-30T02:19:49;0.7;87.7
72919;SHT30;68407;55.694;26.994;2024-01-30T02:24:23;0.7;87.7
72919;SHT30;68407;55.694;26.994;2024-01-30T02:29:47;0.7;87.8
72919;SHT30;68407;55.694;26.994;2024-01-30T02:34:33;0.7;87.7
72919;SHT30;68407;55.694;26.994;2024-01-30T02:39:47;0.6;87.8
72919;SHT30;68407;55.694;26.994;2024-01-30T02:44:49;0.6;87.8
72919;SHT30;68407;55.694;26.994;2024-01-30T02:49:13;0.6;87.9
72919;SHT30;68407;55.694;26.994;2024-01-30T02:54:01;0.6;87.9
72919;SHT30;68407;55.694;26.994;2024-01-30T02:59:27;0.6;87.9
72919;SHT30;68407;55.694;26.994;2024-01-30T03:04:03;0.6;87.9
72919;SHT30;68407;55.694;26.994;2024-01-30T03:09:01;0.6;88
72919;SHT30;68407;55.694;26.994;2024-01-30T03:14:15;0.6;88
72919;SHT30;68407;55.694;26.994;2024-01-30T03:19:31;0.6;88
72919;SHT30;68407;55.694;26.994;2024-01-30T03:24:47;0.6;87.9
72919;SHT30;68407;55.694;26.994;2024-01-30T03:29:23;0.6;88.1
72919;SHT30;68407;55.694;26.994;2024-01-30T03:34:09;0.5;88.1
72919;SHT30;68407;55.694;26.994;2024-01-30T03:39:01;0.5;88.1
72919;SHT30;68407;55.694;26.994;2024-01-30T03:44:01;0.5;88
72919;SHT30;68407;55.694;26.994;2024-01-30T03:49:01;0.5;87.9
72919;SHT30;68407;55.694;26.994;2024-01-30T03:54:02;0.5;87.9
72919;SHT30;68407;55.694;26.994;2024-01-30T03:59:01;0.5;88
72919;SHT30;68407;55.694;26.994;2024-01-30T04:04:15;0.4;88
72919;SHT30;68407;55.694;26.994;2024-01-30T04:09:35;0.4;88
72919;SHT30;68407;55.694;26.994;2024-01-30T04:14:49;0.3;88.2
72919;SHT30;68407;55.694;26.994;2024-01-30T04:19:49;0.3;88.3
72919;SHT30;68407;55.694;26.994;2024-01-30T04:24:01;0.3;88.2
72919;SHT30;68407;55.694;26.994;2024-01-30T04:29:29;0.1;88.2
72919;SHT30;68407;55.694;26.994;2024-01-30T04:34:49;0.1;88.2
72919;SHT30;68407;55.694;26.994;2024-01-30T04:39:39;0;88.4
72919;SHT30;68407;55.694;26.994;2024-01-30T04:44:07;0;88.5
72919;SHT30;68407;55.694;26.994;2024-01-30T04:49:38;-0.1;88.8
72919;SHT30;68407;55.694;26.994;2024-01-30T04:54:17;-0.2;88.6
72919;SHT30;68407;55.694;26.994;2024-01-30T04:59:37;-0.2;88.5
72919;SHT30;68407;55.694;26.994;2024-01-30T05:04:07;-0.3;88.8
72919;SHT30;68407;55.694;26.994;2024-01-30T05:09:47;-0.3;88.9
72919;SHT30;68407;55.694;26.994;2024-01-30T05:14:23;-0.4;89.1
72919;SHT30;68407;55.694;26.994;2024-01-30T05:19:33;-0.5;88.9
72919;SHT30;68407;55.694;26.994;2024-01-30T05:23:59;-0.5;89.3
72919;SHT30;68407;55.694;26.994;2024-01-30T05:28:59;-0.6;89.4
72919;SHT30;68407;55.694;26.994;2024-01-30T05:34:23;-0.7;89.2
72919;SHT30;68407;55.694;26.994;2024-01-30T05:39:13;-0.8;89.1
72919;SHT30;68407;55.694;26.994;2024-01-30T05:44:00;-0.9;89.5
72919;SHT30;68407;55.694;26.994;2024-01-30T05:49:21;-0.9;89.8
72919;SHT30;68407;55.694;26.994;2024-01-30T05:54:47;-0.8;90.2
72919;SHT30;68407;55.694;26.994;2024-01-30T05:59:13;-0.8;90
72919;SHT30;68407;55.694;26.994;2024-01-30T06:04:47;-0.9;89.7
72919;SHT30;68407;55.694;26.994;2024-01-30T06:09:33;-0.9;90
72919;SHT30;68407;55.694;26.994;2024-01-30T06:14:37;-0.9;89.6
72919;SHT30;68407;55.694;26.994;2024-01-30T06:19:43;-1;89.5
72919;SHT30;68407;55.694;26.994;2024-01-30T06:24:25;-0.9;89.8
72919;SHT30;68407;55.694;26.994;2024-01-30T06:29:48;-0.9;89.7
72919;SHT30;68407;55.694;26.994;2024-01-30T06:34:47;-0.9;89.6
72919;SHT30;68407;55.694;26.994;2024-01-30T06:39:23;-0.9;89.3
72919;SHT30;68407;55.694;26.994;2024-01-30T06:44:47;-0.9;89
72919;SHT30;68407;55.694;26.994;2024-01-30T06:49:47;-0.8;89.1
72919;SHT30;68407;55.694;26.994;2024-01-30T06:54:33;-0.7;89.1
72919;SHT30;68407;55.694;26.994;2024-01-30T06:59:21;-0.6;88.9
72919;SHT30;68407;55.694;26.994;2024-01-30T07:04:05;-0.5;89
72919;SHT30;68407;55.694;26.994;2024-01-30T07:09:05;-0.3;88.8
72919;SHT30;68407;55.694;26.994;2024-01-30T07:13:59;-0.2;88.6
72919;SHT30;68407;55.694;26.994;2024-01-30T07:19:27;0;88.5
72919;SHT30;68407;55.694;26.994;2024-01-30T07:24:25;0.1;88.3
72919;SHT30;68407;55.694;26.994;2024-01-30T07:29:43;0.2;88
72919;SHT30;68407;55.694;26.994;2024-01-30T07:34:33;0.3;88
72919;SHT30;68407;55.694;26.994;2024-01-30T07:39:47;0.4;88.1
72919;SHT30;68407;55.694;26.994;2024-01-30T07:44:31;0.4;88
72919;SHT30;68407;55.694;26.994;2024-01-30T07:49:45;0.4;87.9
72919;SHT30;68407;55.694;26.994;2024-01-30T07:54:38;0.5;87.8
72919;SHT30;68407;55.694;26.994;2024-01-30T07:59:25;0.5;87.7
72919;SHT30;68407;55.694;26.994;2024-01-30T08:04:45;0.6;87.5
72919;SHT30;68407;55.694;26.994;2024-01-30T08:09:43;0.7;87.4
72919;SHT30;68407;55.694;26.994;2024-01-30T08:13:59;0.7;87.3
72919;SHT30;68407;55.694;26.994;2024-01-30T08:19:32;0.8;86.8
72919;SHT30;68407;55.694;26.994;2024-01-30T08:24:45;0.9;86.6
72919;SHT30;68407;55.694;26.994;2024-01-30T08:29:31;1;86.5
72919;SHT30;68407;55.694;26.994;2024-01-30T08:34:45;1;86.3
72919;SHT30;68407;55.694;26.994;2024-01-30T08:39:17;1.2;86.1
72919;SHT30;68407;55.694;26.994;2024-01-30T08:43:59;1.4;85.6
72919;SHT30;68407;55.694;26.994;2024-01-30T08:49:45;1.6;85.1
72919;SHT30;68407;55.694;26.994;2024-01-30T08:53:59;1.8;84.5
72919;SHT30;68407;55.694;26.994;2024-01-30T08:59:17;1.9;84.1
72919;SHT30;68407;55.694;26.994;2024-01-30T09:04:25;1.9;83.9
72919;SHT30;68407;55.694;26.994;2024-01-30T09:09:12;2.1;83.7
72919;SHT30;68407;55.694;26.994;2024-01-30T09:14:45;2.3;83.1
72919;SHT30;68407;55.694;26.994;2024-01-30T09:19:45;2.5;82.5
72919;SHT30;68407;55.694;26.994;2024-01-30T09:24:11;2.6;82.1
72919;SHT30;68407;55.694;26.994;2024-01-30T09:28:59;2.7;81.7
72919;SHT30;68407;55.694;26.994;2024-01-30T09:34:13;3;81.1
72919;SHT30;68407;55.694;26.994;2024-01-30T09:39:38;3.2;80.3
72919;SHT30;68407;55.694;26.994;2024-01-30T09:44:28;3.2;79.7
72919;SHT30;68407;55.694;26.994;2024-01-30T09:49:13;3.1;79.9
72919;SHT30;68407;55.694;26.994;2024-01-30T09:54:32;3.1;79.7
72919;SHT30;68407;55.694;26.994;2024-01-30T09:59:48;3.1;79.8
72919;SHT30;68407;55.694;26.994;2024-01-30T10:04:23;3;79.7
72919;SHT30;68407;55.694;26.994;2024-01-30T10:09:47;3.1;79.8
72919;SHT30;68407;55.694;26.994;2024-01-30T10:14:17;3.2;79.5
72919;SHT30;68407;55.694;26.994;2024-01-30T10:18:59;3.4;79.1
72919;SHT30;68407;55.694;26.994;2024-01-30T10:24:06;3.6;78.7
72919;SHT30;68407;55.694;26.994;2024-01-30T10:29:28;3.8;78.3
72919;SHT30;68407;55.694;26.994;2024-01-30T10:33:59;3.9;77.7
72919;SHT30;68407;55.694;26.994;2024-01-30T10:38:59;4;77.3
72919;SHT30;68407;55.694;26.994;2024-01-30T10:44:08;3.9;77.3
72919;SHT30;68407;55.694;26.994;2024-01-30T10:49:45;3.9;77.4
72919;SHT30;68407;55.694;26.994;2024-01-30T10:54:47;3.9;77.1
72919;SHT30;68407;55.694;26.994;2024-01-30T10:59:33;3.9;77.2
72919;SHT30;68407;55.694;26.994;2024-01-30T11:04:47;4;76.9
72919;SHT30;68407;55.694;26.994;2024-01-30T11:09:48;3.9;76.9
72919;SHT30;68407;55.694;26.994;2024-01-30T11:14:37;3.8;77.4
72919;SHT30;68407;55.694;26.994;2024-01-30T11:19:22;3.9;77.2
72919;SHT30;68407;55.694;26.994;2024-01-30T11:24:38;3.9;77.4
72919;SHT30;68407;55.694;26.994;2024-01-30T11:29:31;3.9;77.1
72919;SHT30;68407;55.694;26.994;2024-01-30T11:34:44;3.9;77.3
72919;SHT30;68407;55.694;26.994;2024-01-30T11:39:21;4.2;76.9
72919;SHT30;68407;55.694;26.994;2024-01-30T11:44:38;4.4;76.2
72919;SHT30;68407;55.694;26.994;2024-01-30T11:49:23;4.5;75.9
72919;SHT30;68407;55.694;26.994;2024-01-30T11:54:17;4.7;75.6
72919;SHT30;68407;55.694;26.994;2024-01-30T11:59:38;4.8;75.4
72919;SHT30;68407;55.694;26.994;2024-01-30T12:04:18;4.9;75.2
72919;SHT30;68407;55.694;26.994;2024-01-30T12:09:00;5.1;74.8
72919;SHT30;68407;55.694;26.994;2024-01-30T12:13:59;5.1;74.5
72919;SHT30;68407;55.694;26.994;2024-01-30T12:19:31;5.1;74.5
72919;SHT30;68407;55.694;26.994;2024-01-30T12:24:46;5;74.5
72919;SHT30;68407;55.694;26.994;2024-01-30T12:29:46;5.1;74.6
72919;SHT30;68407;55.694;26.994;2024-01-30T12:34:04;5;74.6
72919;SHT30;68407;55.694;26.994;2024-01-30T12:39:42;5;74.7
72919;SHT30;68407;55.694;26.994;2024-01-30T12:44:44;5;74.8
72919;SHT30;68407;55.694;26.994;2024-01-30T12:49:36;4.9;74.8
72919;SHT30;68407;55.694;26.994;2024-01-30T12:54:16;4.8;74.9
72919;SHT30;68407;55.694;26.994;2024-01-30T12:59:02;4.9;75
72919;SHT30;68407;55.694;26.994;2024-01-30T13:04:16;4.7;75.1
72919;SHT30;68407;55.694;26.994;2024-01-30T13:09:44;4.5;75.5
72919;SHT30;68407;55.694;26.994;2024-01-30T13:14:22;4.5;75.9
72919;SHT30;68407;55.694;26.994;2024-01-30T13:19:46;4.5;75.8
72919;SHT30;68407;55.694;26.994;2024-01-30T13:24:24;4.4;75.9
72919;SHT30;68407;55.694;26.994;2024-01-30T13:29:44;4.4;76.1
72919;SHT30;68407;55.694;26.994;2024-01-30T13:34:00;4.3;76.2
72919;SHT30;68407;55.694;26.994;2024-01-30T13:39:00;4.4;76.2
72919;SHT30;68407;55.694;26.994;2024-01-30T13:44:46;4.3;76.3
72919;SHT30;68407;55.694;26.994;2024-01-30T13:49:12;4.1;76.6
72919;SHT30;68407;55.694;26.994;2024-01-30T13:54:12;4;76.9
72919;SHT30;68407;55.694;26.994;2024-01-30T13:59:00;3.8;77.4
72919;SHT30;68407;55.694;26.994;2024-01-30T14:04:44;3.6;77.8
72919;SHT30;68407;55.694;26.994;2024-01-30T14:09:12;3.4;78.4
72919;SHT30;68407;55.694;26.994;2024-01-30T14:14:44;3.2;78.8
72919;SHT30;68407;55.694;26.994;2024-01-30T14:19:02;3.1;79.2
72919;SHT30;68407;55.694;26.994;2024-01-30T14:24:36;3;79.4
72919;SHT30;68407;55.694;26.994;2024-01-30T14:29:16;3;79.5
72919;SHT30;68407;55.694;26.994;2024-01-30T14:34:26;2.9;79.6
72919;SHT30;68407;55.694;26.994;2024-01-30T14:39:44;2.8;79.8
72919;SHT30;68407;55.694;26.994;2024-01-30T14:44:44;2.8;80
72919;SHT30;68407;55.694;26.994;2024-01-30T14:49:18;2.8;80
72919;SHT30;68407;55.694;26.994;2024-01-30T14:54:44;2.7;80.3
72919;SHT30;68407;55.694;26.994;2024-01-30T14:59:00;2.7;80.4
72919;SHT30;68407;55.694;26.994;2024-01-30T15:04:32;2.5;80.6
72919;SHT30;68407;55.694;26.994;2024-01-30T15:09:44;2.4;80.8
72919;SHT30;68407;55.694;26.994;2024-01-30T15:14:04;2.4;81.1
72919;SHT30;68407;55.694;26.994;2024-01-30T15:19:22;2.3;81.1
72919;SHT30;68407;55.694;26.994;2024-01-30T15:24:12;2.2;81.6
72919;SHT30;68407;55.694;26.994;2024-01-30T15:29:00;2.2;81.8
72919;SHT30;68407;55.694;26.994;2024-01-30T15:34:44;2.1;81.8
72919;SHT30;68407;55.694;26.994;2024-01-30T15:39:44;2;82.1
72919;SHT30;68407;55.694;26.994;2024-01-30T15:44:12;1.9;82.6
72919;SHT30;68407;55.694;26.994;2024-01-30T15:49:44;2;82.7
72919;SHT30;68407;55.694;26.994;2024-01-30T15:54:32;2;82.6
72919;SHT30;68407;55.694;26.994;2024-01-30T15:59:36;1.9;82.5
72919;SHT30;68407;55.694;26.994;2024-01-30T16:04:04;1.9;82.5
72919;SHT30;68407;55.694;26.994;2024-01-30T16:09:02;1.8;82.8
72919;SHT30;68407;55.694;26.994;2024-01-30T16:14:34;1.9;83
72919;SHT30;68407;55.694;26.994;2024-01-30T16:19:44;2;82.9
72919;SHT30;68407;55.694;26.994;2024-01-30T16:24:32;2;82.7
72919;SHT30;68407;55.694;26.994;2024-01-30T16:29:44;1.9;82.8
72919;SHT30;68407;55.694;26.994;2024-01-30T16:34:44;1.8;82.9
72919;SHT30;68407;55.694;26.994;2024-01-30T16:39:32;1.8;83.1
72919;SHT30;68407;55.694;26.994;2024-01-30T16:44:44;1.8;83.3
72919;SHT30;68407;55.694;26.994;2024-01-30T16:49:00;1.8;83.3
72919;SHT30;68407;55.694;26.994;2024-01-30T16:54:04;1.7;83.4
72919;SHT30;68407;55.694;26.994;2024-01-30T16:59:04;1.7;83.5
72919;SHT30;68407;55.694;26.994;2024-01-30T17:04:12;1.6;83.7
72919;SHT30;68407;55.694;26.994;2024-01-30T17:09:18;1.7;83.8
72919;SHT30;68407;55.694;26.994;2024-01-30T17:14:46;1.6;83.8
72919;SHT30;68407;55.694;26.994;2024-01-30T17:19:14;1.5;84
72919;SHT30;68407;55.694;26.994;2024-01-30T17:24:48;1.5;84.3
72919;SHT30;68407;55.694;26.994;2024-01-30T17:29:28;1.4;84.5
72919;SHT30;68407;55.694;26.994;2024-01-30T17:34:27;1.4;84.6
72919;SHT30;68407;55.694;26.994;2024-01-30T17:39:06;1.4;84.7
72919;SHT30;68407;55.694;26.994;2024-01-30T17:44:28;1.5;84.6
72919;SHT30;68407;55.694;26.994;2024-01-30T17:49:38;1.5;84.3
72919;SHT30;68407;55.694;26.994;2024-01-30T17:54:12;1.5;84.3
72919;SHT30;68407;55.694;26.994;2024-01-30T17:59:20;1.5;84.4
72919;SHT30;68407;55.694;26.994;2024-01-30T18:04:26;1.6;84.4
72919;SHT30;68407;55.694;26.994;2024-01-30T18:09:46;1.5;84.4
72919;SHT30;68407;55.694;26.994;2024-01-30T18:14:18;1.6;84.5
72919;SHT30;68407;55.694;26.994;2024-01-30T18:19:38;1.5;84.6
72919;SHT30;68407;55.694;26.994;2024-01-30T18:24:18;1.4;84.6
72919;SHT30;68407;55.694;26.994;2024-01-30T18:29:00;1.4;84.9
72919;SHT30;68407;55.694;26.994;2024-01-30T18:34:38;1.5;84.8
72919;SHT30;68407;55.694;26.994;2024-01-30T18:39:00;1.4;84.9
72919;SHT30;68407;55.694;26.994;2024-01-30T18:44:06;1.4;85
72919;SHT30;68407;55.694;26.994;2024-01-30T18:49:00;1.4;85.1
72919;SHT30;68407;55.694;26.994;2024-01-30T18:54:34;1.4;85.1
72919;SHT30;68407;55.694;26.994;2024-01-30T18:59:48;1.4;85
72919;SHT30;68407;55.694;26.994;2024-01-30T19:04:48;1.3;85.1
72919;SHT30;68407;55.694;26.994;2024-01-30T19:09:15;1.3;85.4
72919;SHT30;68407;55.694;26.994;2024-01-30T19:14:28;1.3;85.4
72919;SHT30;68407;55.694;26.994;2024-01-30T19:19:49;1.3;85.4
72919;SHT30;68407;55.694;26.994;2024-01-30T19:24:32;1.3;85.3
72919;SHT30;68407;55.694;26.994;2024-01-30T19:29:06;1.3;85.2
72919;SHT30;68407;55.694;26.994;2024-01-30T19:34:36;1.3;85.3
72919;SHT30;68407;55.694;26.994;2024-01-30T19:39:34;1.2;85.3
72919;SHT30;68407;55.694;26.994;2024-01-30T19:44:48;1.2;85.4
72919;SHT30;68407;55.694;26.994;2024-01-30T19:49:00;1.1;85.5
72919;SHT30;68407;55.694;26.994;2024-01-30T19:54:38;1;85.5
72919;SHT30;68407;55.694;26.994;2024-01-30T19:59:18;0.9;85.9
72919;SHT30;68407;55.694;26.994;2024-01-30T20:04:18;0.9;85.9
72919;SHT30;68407;55.694;26.994;2024-01-30T20:09:38;0.9;86
72919;SHT30;68407;55.694;26.994;2024-01-30T20:14:29;0.8;86
72919;SHT30;68407;55.694;26.994;2024-01-30T20:19:00;0.8;86.1
72919;SHT30;68407;55.694;26.994;2024-01-30T20:24:22;0.7;86.1
72919;SHT30;68407;55.694;26.994;2024-01-30T20:29:08;0.7;86.3
72919;SHT30;68407;55.694;26.994;2024-01-30T20:34:48;0.7;86.5
72919;SHT30;68407;55.694;26.994;2024-01-30T20:39:46;0.7;86.4
72919;SHT30;68407;55.694;26.994;2024-01-30T20:44:06;0.7;86.4
72919;SHT30;68407;55.694;26.994;2024-01-30T20:49:48;0.6;86.4
72919;SHT30;68407;55.694;26.994;2024-01-30T20:54:48;0.5;86.6
72919;SHT30;68407;55.694;26.994;2024-01-30T20:59:48;0.5;86.8
72919;SHT30;68407;55.694;26.994;2024-01-30T21:04:12;0.4;86.8
72919;SHT30;68407;55.694;26.994;2024-01-30T21:09:22;0.4;87
72919;SHT30;68407;55.694;26.994;2024-01-30T21:14:18;0.3;87
72919;SHT30;68407;55.694;26.994;2024-01-30T21:19:48;0.2;87.2
72919;SHT30;68407;55.694;26.994;2024-01-30T21:24:06;0.1;87.2
72919;SHT30;68407;55.694;26.994;2024-01-30T21:29:48;0.1;87.4
72919;SHT30;68407;55.694;26.994;2024-01-30T21:34:18;0;87.6
72919;SHT30;68407;55.694;26.994;2024-01-30T21:39:26;-0.1;87.7
72919;SHT30;68407;55.694;26.994;2024-01-30T21:44:18;-0.2;87.7
72919;SHT30;68407;55.694;26.994;2024-01-30T21:49:00;-0.2;87.8
72919;SHT30;68407;55.694;26.994;2024-01-30T21:54:24;-0.3;87.8
72919;SHT30;68407;55.694;26.994;2024-01-30T21:59:28;-0.4;87.7
72919;SHT30;68407;55.694;26.994;2024-01-30T22:04:06;-0.4;88.2
72919;SHT30;68407;55.694;26.994;2024-01-30T22:09:00;-0.4;88.3
72919;SHT30;68407;55.694;26.994;2024-01-30T22:14:48;-0.4;88.4
72919;SHT30;68407;55.694;26.994;2024-01-30T22:19:00;-0.3;88.5
72919;SHT30;68407;55.694;26.994;2024-01-30T22:24:48;-0.4;88.2
72919;SHT30;68407;55.694;26.994;2024-01-30T22:29:20;-0.4;88.2
72919;SHT30;68407;55.694;26.994;2024-01-30T22:34:35;-0.3;88.4
72919;SHT30;68407;55.694;26.994;2024-01-30T22:39:18;-0.3;88
72919;SHT30;68407;55.694;26.994;2024-01-30T22:44:28;-0.3;88
72919;SHT30;68407;55.694;26.994;2024-01-30T22:49:26;-0.3;88
72919;SHT30;68407;55.694;26.994;2024-01-30T22:54:48;-0.3;87.8
72919;SHT30;68407;55.694;26.994;2024-01-30T22:59:28;-0.4;87.4
72919;SHT30;68407;55.694;26.994;2024-01-30T23:04:48;-0.4;87.5
72919;SHT30;68407;55.694;26.994;2024-01-30T23:09:48;-0.5;87.5
72919;SHT30;68407;55.694;26.994;2024-01-30T23:14:26;-0.6;87.5
72919;SHT30;68407;55.694;26.994;2024-01-30T23:19:38;-0.6;87.4
72919;SHT30;68407;55.694;26.994;2024-01-30T23:24:14;-0.7;87.6
72919;SHT30;68407;55.694;26.994;2024-01-30T23:29:06;-0.8;88.1
72919;SHT30;68407;55.694;26.994;2024-01-30T23:34:14;-0.7;88.2
72919;SHT30;68407;55.694;26.994;2024-01-30T23:39:00;-0.7;88.1
72919;SHT30;68407;55.694;26.994;2024-01-30T23:44:14;-0.7;88.5
72919;SHT30;68407;55.694;26.994;2024-01-30T23:49:48;-0.6;88.6
72919;SHT30;68407;55.694;26.994;2024-01-30T23:54:26;-0.5;88.6
72919;SHT30;68407;55.694;26.994;2024-01-30T23:59:48;-0.5;88.7
